createdAt,value
2018-06-28T00:00:32.974Z,6.50
2018-06-28T00:01:32.959Z,9.10
2018-06-28T00:02:32.953Z,5.10
2018-06-28T00:03:32.988Z,8.20
2018-06-28T00:04:32.917Z,8.70
2018-06-28T00:05:32.903Z,5.10
2018-06-28T00:06:32.891Z,6.20
2018-06-28T00:07:32.884Z,5.30
2018-06-28T00:08:32.860Z,7.70
2018-06-28T00:09:32.847Z,7.90
2018-06-28T00:10:32.833Z,7.60
2018-06-28T00:11:32.818Z,7.30
2018-06-28T00:12:32.805Z,8.30
2018-06-28T00:13:32.835Z,9.40
2018-06-28T00:14:32.777Z,7.20
2018-06-28T00:15:32.762Z,8.10
2018-06-28T00:16:32.748Z,8.70
2018-06-28T00:17:32.733Z,9.80
2018-06-28T00:18:32.719Z,8.60
2018-06-28T00:19:32.706Z,6.10
2018-06-28T00:20:32.690Z,8.80
2018-06-28T00:21:32.676Z,11.60
2018-06-28T00:22:32.662Z,9.30
2018-06-28T00:23:32.654Z,8.70
2018-06-28T00:24:32.636Z,8.00
2018-06-28T00:25:32.625Z,9.90
2018-06-28T00:26:32.605Z,7.40
2018-06-28T00:27:32.593Z,8.20
2018-06-28T00:28:32.576Z,7.30
2018-06-28T00:29:32.563Z,7.50
2018-06-28T00:30:32.549Z,9.20
2018-06-28T00:31:32.534Z,7.30
2018-06-28T00:32:32.521Z,7.30
2018-06-28T00:33:32.505Z,9.50
2018-06-28T00:34:32.496Z,7.70
2018-06-28T00:35:32.478Z,11.50
2018-06-28T00:36:32.462Z,7.60
2018-06-28T00:37:32.448Z,8.90
2018-06-28T00:38:32.434Z,10.90
2018-06-28T00:39:32.420Z,8.70
2018-06-28T00:40:32.404Z,7.80
2018-06-28T00:41:32.394Z,11.40
2018-06-28T00:42:32.377Z,9.60
2018-06-28T00:43:32.365Z,9.40
2018-06-28T00:44:32.347Z,9.10
2018-06-28T00:45:32.333Z,8.80
2018-06-28T00:46:32.320Z,10.50
2018-06-28T00:47:32.304Z,10.40
2018-06-28T00:48:32.292Z,13.90
2018-06-28T00:49:32.278Z,8.00
2018-06-28T00:50:32.262Z,9.60
2018-06-28T00:51:32.247Z,10.20
2018-06-28T00:52:32.232Z,7.80
2018-06-28T00:53:32.220Z,12.90
2018-06-28T00:54:32.205Z,12.40
2018-06-28T00:55:32.191Z,9.10
2018-06-28T00:56:32.176Z,8.90
2018-06-28T00:57:32.171Z,10.50
2018-06-28T00:58:32.147Z,9.50
2018-06-28T00:59:32.232Z,10.50
2018-06-28T01:00:32.118Z,9.50
2018-06-28T01:01:32.103Z,11.00
2018-06-28T01:02:32.094Z,11.50
2018-06-28T01:03:32.076Z,12.10
2018-06-28T01:04:32.058Z,8.80
2018-06-28T01:05:32.047Z,11.80
2018-06-28T01:06:32.029Z,10.10
2018-06-28T01:07:32.016Z,10.70
2018-06-28T01:08:32.008Z,11.20
2018-06-28T01:09:31.989Z,11.80
2018-06-28T01:10:31.971Z,10.20
2018-06-28T01:11:31.963Z,9.90
2018-06-28T01:12:31.944Z,9.70
2018-06-28T01:13:31.928Z,10.40
2018-06-28T01:14:31.923Z,10.70
2018-06-28T01:15:31.906Z,14.00
2018-06-28T01:16:31.885Z,12.10
2018-06-28T01:17:31.881Z,14.30
2018-06-28T01:18:31.858Z,11.90
2018-06-28T01:19:31.842Z,13.10
2018-06-28T01:20:31.832Z,10.10
2018-06-28T01:21:31.813Z,11.80
2018-06-28T01:22:31.800Z,10.10
2018-06-28T01:23:31.787Z,11.60
2018-06-28T01:24:31.770Z,11.10
2018-06-28T01:25:31.762Z,13.70
2018-06-28T01:26:31.741Z,12.90
2018-06-28T01:27:31.728Z,10.60
2018-06-28T01:28:31.714Z,13.80
2018-06-28T01:29:31.695Z,12.80
2018-06-28T01:30:31.692Z,12.70
2018-06-28T01:31:31.667Z,15.40
2018-06-28T01:32:31.656Z,13.10
2018-06-28T01:33:31.639Z,11.60
2018-06-28T01:34:31.775Z,15.10
2018-06-28T01:35:31.609Z,15.40
2018-06-28T01:36:31.594Z,12.30
2018-06-28T01:37:31.631Z,12.80
2018-06-28T01:38:31.566Z,12.10
2018-06-28T01:39:31.551Z,12.80
2018-06-28T01:40:31.534Z,11.60
2018-06-28T01:41:31.521Z,12.00
2018-06-28T01:42:31.507Z,11.50
2018-06-28T01:43:31.491Z,13.90
2018-06-28T01:44:31.476Z,13.80
2018-06-28T01:45:31.461Z,13.30
2018-06-28T01:46:31.448Z,13.00
2018-06-28T01:47:31.441Z,12.30
2018-06-28T01:48:31.417Z,12.70
2018-06-28T01:49:31.409Z,13.70
2018-06-28T01:50:31.389Z,12.20
2018-06-28T01:51:31.374Z,10.70
2018-06-28T01:52:31.358Z,16.30
2018-06-28T01:53:31.343Z,10.90
2018-06-28T01:54:31.329Z,13.40
2018-06-28T01:55:31.313Z,14.10
2018-06-28T01:56:31.302Z,12.10
2018-06-28T01:57:31.284Z,13.10
2018-06-28T01:58:31.273Z,12.90
2018-06-28T01:59:31.263Z,13.70
2018-06-28T02:00:31.242Z,16.40
2018-06-28T02:01:31.225Z,16.10
2018-06-28T02:02:31.214Z,11.20
2018-06-28T02:03:31.198Z,13.50
2018-06-28T02:04:31.181Z,12.70
2018-06-28T02:05:31.166Z,13.90
2018-06-28T02:06:31.152Z,17.60
2018-06-28T02:07:31.139Z,12.40
2018-06-28T02:08:31.122Z,14.50
2018-06-28T02:09:31.107Z,14.10
2018-06-28T02:10:31.093Z,13.00
2018-06-28T02:11:31.077Z,14.30
2018-06-28T02:12:31.062Z,12.30
2018-06-28T02:13:31.051Z,14.60
2018-06-28T02:14:31.035Z,14.30
2018-06-28T02:15:31.019Z,13.00
2018-06-28T02:16:31.003Z,13.20
2018-06-28T02:17:30.988Z,11.90
2018-06-28T02:18:30.975Z,16.20
2018-06-28T02:19:30.960Z,15.40
2018-06-28T02:20:30.943Z,15.80
2018-06-28T02:21:30.928Z,15.50
2018-06-28T02:22:30.912Z,13.30
2018-06-28T02:23:30.900Z,12.40
2018-06-28T02:24:30.886Z,13.50
2018-06-28T02:25:30.874Z,18.00
2018-06-28T02:26:30.853Z,13.30
2018-06-28T02:27:30.840Z,13.50
2018-06-28T02:28:30.831Z,15.70
2018-06-28T02:29:30.808Z,15.70
2018-06-28T02:30:30.796Z,17.20
2018-06-28T02:31:30.783Z,14.10
2018-06-28T02:32:30.762Z,14.60
2018-06-28T02:33:30.751Z,15.10
2018-06-28T02:34:30.734Z,13.20
2018-06-28T02:35:30.720Z,16.30
2018-06-28T02:36:30.705Z,13.50
2018-06-28T02:37:30.689Z,14.80
2018-06-28T02:38:30.673Z,15.70
2018-06-28T02:39:30.680Z,15.60
2018-06-28T02:40:30.644Z,14.90
2018-06-28T02:41:30.629Z,14.70
2018-06-28T02:42:30.616Z,15.10
2018-06-28T02:43:30.601Z,15.90
2018-06-28T02:44:30.583Z,13.40
2018-06-28T02:45:30.568Z,13.90
2018-06-28T02:46:30.554Z,14.50
2018-06-28T02:47:30.540Z,13.70
2018-06-28T02:48:30.523Z,17.40
2018-06-28T02:49:30.507Z,12.00
2018-06-28T02:50:30.496Z,14.90
2018-06-28T02:51:30.480Z,14.30
2018-06-28T02:52:30.463Z,12.70
2018-06-28T02:53:30.448Z,20.10
2018-06-28T02:54:30.434Z,15.10
2018-06-28T02:55:30.428Z,15.30
2018-06-28T02:56:30.404Z,14.10
2018-06-28T02:57:30.390Z,12.10
2018-06-28T02:58:30.381Z,14.40
2018-06-28T02:59:30.358Z,17.60
2018-06-28T03:00:30.498Z,14.00
2018-06-28T03:01:30.327Z,13.60
2018-06-28T03:02:30.312Z,14.70
2018-06-28T03:03:30.298Z,16.90
2018-06-28T03:04:30.281Z,16.90
2018-06-28T03:05:30.277Z,18.40
2018-06-28T03:06:30.253Z,15.80
2018-06-28T03:07:30.238Z,18.50
2018-06-28T03:08:30.220Z,17.70
2018-06-28T03:09:30.206Z,14.00
2018-06-28T03:10:30.191Z,17.70
2018-06-28T03:11:30.178Z,16.70
2018-06-28T03:12:30.161Z,16.30
2018-06-28T03:13:30.146Z,15.00
2018-06-28T03:14:30.132Z,15.70
2018-06-28T03:15:30.116Z,16.20
2018-06-28T03:16:30.100Z,14.50
2018-06-28T03:17:30.085Z,22.50
2018-06-28T03:18:30.069Z,17.10
2018-06-28T03:19:30.056Z,17.90
2018-06-28T03:20:30.040Z,13.00
2018-06-28T03:21:30.026Z,18.50
2018-06-28T03:22:30.012Z,13.30
2018-06-28T03:23:29.994Z,14.50
2018-06-28T03:24:29.978Z,20.50
2018-06-28T03:25:29.963Z,13.90
2018-06-28T03:26:29.949Z,14.70
2018-06-28T03:27:29.934Z,17.20
2018-06-28T03:28:29.918Z,18.90
2018-06-28T03:29:29.906Z,16.40
2018-06-28T03:30:29.886Z,17.10
2018-06-28T03:31:29.873Z,15.60
2018-06-28T03:32:29.860Z,13.10
2018-06-28T03:33:29.850Z,16.70
2018-06-28T03:34:29.825Z,14.90
2018-06-28T03:35:29.812Z,14.40
2018-06-28T03:36:29.796Z,18.10
2018-06-28T03:37:29.780Z,16.40
2018-06-28T03:38:29.765Z,23.30
2018-06-28T03:39:29.752Z,17.10
2018-06-28T03:40:29.734Z,16.30
2018-06-28T03:41:29.727Z,23.40
2018-06-28T03:42:29.704Z,16.50
2018-06-28T03:43:29.692Z,16.10
2018-06-28T03:44:29.672Z,16.90
2018-06-28T03:45:29.658Z,18.10
2018-06-28T03:46:29.698Z,14.40
2018-06-28T03:47:29.631Z,16.40
2018-06-28T03:48:29.613Z,16.60
2018-06-28T03:49:29.597Z,16.80
2018-06-28T03:50:29.583Z,16.50
2018-06-28T03:51:29.568Z,15.30
2018-06-28T03:52:29.550Z,16.60
2018-06-28T03:53:29.535Z,14.30
2018-06-28T03:54:29.520Z,17.00
2018-06-28T03:55:29.514Z,17.30
2018-06-28T03:56:29.488Z,20.70
2018-06-28T03:57:29.486Z,18.00
2018-06-28T03:58:29.459Z,16.80
2018-06-28T03:59:29.444Z,17.80
2018-06-28T04:00:29.430Z,20.60
2018-06-28T04:01:29.415Z,19.30
2018-06-28T04:02:29.411Z,15.00
2018-06-28T04:03:29.384Z,14.80
2018-06-28T04:04:29.368Z,17.10
2018-06-28T04:05:29.353Z,19.80
2018-06-28T04:06:29.382Z,15.80
2018-06-28T04:07:29.323Z,15.40
2018-06-28T04:08:29.359Z,16.10
2018-06-28T04:09:29.293Z,18.40
2018-06-28T04:10:29.276Z,18.10
2018-06-28T04:11:29.264Z,14.30
2018-06-28T04:12:29.245Z,18.00
2018-06-28T04:13:29.234Z,19.80
2018-06-28T04:14:29.217Z,16.80
2018-06-28T04:15:29.216Z,18.40
2018-06-28T04:16:29.188Z,19.70
2018-06-28T04:17:29.170Z,17.50
2018-06-28T04:18:29.154Z,16.00
2018-06-28T04:19:29.141Z,18.40
2018-06-28T04:20:29.124Z,15.70
2018-06-28T04:21:29.107Z,16.50
2018-06-28T04:22:29.093Z,17.50
2018-06-28T04:23:29.079Z,19.10
2018-06-28T04:24:29.063Z,18.90
2018-06-28T04:25:29.052Z,20.10
2018-06-28T04:26:29.033Z,19.20
2018-06-28T04:27:29.083Z,17.90
2018-06-28T04:28:29.002Z,19.10
2018-06-28T04:29:28.996Z,14.90
2018-06-28T04:30:28.975Z,16.80
2018-06-28T04:31:28.957Z,17.00
2018-06-28T04:32:28.943Z,17.70
2018-06-28T04:33:28.929Z,19.00
2018-06-28T04:34:28.911Z,13.70
2018-06-28T04:35:28.898Z,17.20
2018-06-28T04:36:28.881Z,19.40
2018-06-28T04:37:28.869Z,18.30
2018-06-28T04:38:28.853Z,16.00
2018-06-28T04:39:28.837Z,17.80
2018-06-28T04:40:28.823Z,17.70
2018-06-28T04:41:28.808Z,17.60
2018-06-28T04:42:28.807Z,18.30
2018-06-28T04:43:28.779Z,16.20
2018-06-28T04:44:28.762Z,17.50
2018-06-28T04:45:28.757Z,16.00
2018-06-28T04:46:28.741Z,17.60
2018-06-28T04:47:28.719Z,17.60
2018-06-28T04:48:28.701Z,14.00
2018-06-28T04:49:28.687Z,15.40
2018-06-28T04:50:28.672Z,15.60
2018-06-28T04:51:28.659Z,15.40
2018-06-28T04:52:28.643Z,15.10
2018-06-28T04:53:28.628Z,17.20
2018-06-28T04:54:28.612Z,15.20
2018-06-28T04:55:28.599Z,15.80
2018-06-28T04:56:28.583Z,17.70
2018-06-28T04:57:28.569Z,15.40
2018-06-28T04:58:28.559Z,14.90
2018-06-28T04:59:28.539Z,16.40
2018-06-28T05:00:28.523Z,14.90
2018-06-28T05:01:28.508Z,12.90
2018-06-28T05:02:28.495Z,15.10
2018-06-28T05:03:28.478Z,16.50
2018-06-28T05:04:28.463Z,11.50
2018-06-28T05:05:28.454Z,13.40
2018-06-28T05:06:28.443Z,12.50
2018-06-28T05:07:28.431Z,14.00
2018-06-28T05:08:28.417Z,13.90
2018-06-28T05:09:28.389Z,13.90
2018-06-28T05:10:28.375Z,15.80
2018-06-28T05:11:28.360Z,15.90
2018-06-28T05:12:28.351Z,15.40
2018-06-28T05:13:28.346Z,16.40
2018-06-28T05:14:28.317Z,16.00
2018-06-28T05:15:28.303Z,14.70
2018-06-28T05:16:28.286Z,15.20
2018-06-28T05:17:28.274Z,16.80
2018-06-28T05:18:28.257Z,17.50
2018-06-28T05:19:28.243Z,15.40
2018-06-28T05:20:28.227Z,11.10
2018-06-28T05:21:28.215Z,14.10
2018-06-28T05:22:28.198Z,17.10
2018-06-28T05:23:28.224Z,14.20
2018-06-28T05:24:28.171Z,12.80
2018-06-28T05:25:28.155Z,13.90
2018-06-28T05:26:28.147Z,18.10
2018-06-28T05:27:28.143Z,15.60
2018-06-28T05:28:28.110Z,14.10
2018-06-28T05:29:28.096Z,13.50
2018-06-28T05:30:28.085Z,13.30
2018-06-28T05:31:28.067Z,14.40
2018-06-28T05:32:28.055Z,15.30
2018-06-28T05:33:28.039Z,15.20
2018-06-28T05:34:28.027Z,13.30
2018-06-28T05:35:28.013Z,12.40
2018-06-28T05:36:27.995Z,15.20
2018-06-28T05:37:27.993Z,14.00
2018-06-28T05:38:27.969Z,13.90
2018-06-28T05:39:27.961Z,13.90
2018-06-28T05:40:27.938Z,12.60
2018-06-28T05:41:27.927Z,15.60
2018-06-28T05:42:27.911Z,12.20
2018-06-28T05:43:27.896Z,13.00
2018-06-28T05:44:27.883Z,16.50
2018-06-28T05:45:27.867Z,15.20
2018-06-28T05:46:27.854Z,16.00
2018-06-28T05:47:27.840Z,14.00
2018-06-28T05:48:27.827Z,17.00
2018-06-28T05:49:27.813Z,12.60
2018-06-28T05:50:27.799Z,12.00
2018-06-28T05:51:27.787Z,10.90
2018-06-28T05:52:27.774Z,15.60
2018-06-28T05:53:27.760Z,14.80
2018-06-28T05:54:27.751Z,12.50
2018-06-28T05:55:27.743Z,11.40
2018-06-28T05:56:27.729Z,12.50
2018-06-28T05:57:27.718Z,12.40
2018-06-28T05:58:27.706Z,10.80
2018-06-28T05:59:27.698Z,15.80
2018-06-28T06:00:27.687Z,11.50
2018-06-28T06:01:27.764Z,15.00
2018-06-28T06:02:27.673Z,11.00
2018-06-28T06:03:27.662Z,10.30
2018-06-28T06:04:27.657Z,11.70
2018-06-28T06:05:27.649Z,10.50
2018-06-28T06:06:27.638Z,9.10
2018-06-28T06:07:27.649Z,10.40
2018-06-28T06:08:27.684Z,13.60
2018-06-28T06:09:27.619Z,8.90
2018-06-28T06:10:27.753Z,15.10
2018-06-28T06:11:27.608Z,10.60
2018-06-28T06:12:27.602Z,10.70
2018-06-28T06:13:27.596Z,8.90
2018-06-28T06:14:27.589Z,12.20
2018-06-28T06:15:27.586Z,8.20
2018-06-28T06:16:27.579Z,9.20
2018-06-28T06:17:27.576Z,10.40
2018-06-28T06:18:27.570Z,11.20
2018-06-28T06:19:27.567Z,9.90
2018-06-28T06:20:27.568Z,9.70
2018-06-28T06:21:27.579Z,10.50
2018-06-28T06:22:27.557Z,9.80
2018-06-28T06:23:27.551Z,10.70
2018-06-28T06:24:27.596Z,11.30
2018-06-28T06:25:27.544Z,11.60
2018-06-28T06:26:27.541Z,8.30
2018-06-28T06:27:27.541Z,10.80
2018-06-28T06:28:27.535Z,9.40
2018-06-28T06:29:27.580Z,10.70
2018-06-28T06:30:27.530Z,8.20
2018-06-28T06:31:27.530Z,9.70
2018-06-28T06:32:27.525Z,9.00
2018-06-28T06:33:27.524Z,9.20
2018-06-28T06:34:27.524Z,9.50
2018-06-28T06:35:27.521Z,12.60
2018-06-28T06:36:27.519Z,8.40
2018-06-28T06:37:27.517Z,7.40
2018-06-28T06:38:27.516Z,11.00
2018-06-28T06:39:27.528Z,11.80
2018-06-28T06:40:27.514Z,6.30
2018-06-28T06:41:27.512Z,10.30
2018-06-28T06:42:27.518Z,8.40
2018-06-28T06:43:27.514Z,6.60
2018-06-28T06:44:27.514Z,7.10
2018-06-28T06:45:27.521Z,7.20
2018-06-28T06:46:27.515Z,8.10
2018-06-28T06:47:27.514Z,6.00
2018-06-28T06:48:27.512Z,7.70
2018-06-28T06:49:27.515Z,7.30
2018-06-28T06:50:27.523Z,5.70
2018-06-28T06:51:27.536Z,6.30
2018-06-28T06:52:27.542Z,7.20
2018-06-28T06:53:27.519Z,4.90
2018-06-28T06:54:27.522Z,6.80
2018-06-28T06:55:27.674Z,5.20
2018-06-28T06:56:27.540Z,5.80
2018-06-28T06:57:27.530Z,8.70
2018-06-28T06:58:27.525Z,8.00
2018-06-28T06:59:27.530Z,8.20
2018-06-28T07:00:27.531Z,5.20
2018-06-28T07:01:27.533Z,5.90
2018-06-28T07:02:27.534Z,8.70
2018-06-28T07:03:27.571Z,7.40
2018-06-28T07:04:27.545Z,5.80
2018-06-28T07:05:27.541Z,8.90
2018-06-28T07:06:27.560Z,7.50
2018-06-28T07:07:27.552Z,7.60
2018-06-28T07:08:27.660Z,6.90
2018-06-28T07:09:27.552Z,4.70
2018-06-28T07:10:27.690Z,7.90
2018-06-28T07:11:27.613Z,7.10
2018-06-28T07:12:27.563Z,5.30
2018-06-28T07:13:27.563Z,8.90
2018-06-28T07:14:27.572Z,5.50
2018-06-28T07:15:27.575Z,4.50
2018-06-28T07:16:27.573Z,6.80
2018-06-28T07:17:27.583Z,4.40
2018-06-28T07:18:27.581Z,8.10
2018-06-28T07:19:27.582Z,5.20
2018-06-28T07:20:27.588Z,4.30
2018-06-28T07:21:27.639Z,5.10
2018-06-28T07:22:27.595Z,6.70
2018-06-28T07:23:27.611Z,5.90
2018-06-28T07:24:27.611Z,5.10
2018-06-28T07:25:27.607Z,5.50
2018-06-28T07:26:27.609Z,7.10
2018-06-28T07:27:27.619Z,6.50
2018-06-28T07:28:27.691Z,6.40
2018-06-28T07:29:27.809Z,5.20
2018-06-28T07:30:27.628Z,4.20
2018-06-28T07:31:27.692Z,7.30
2018-06-28T07:32:27.636Z,5.10
2018-06-28T07:33:27.643Z,5.20
2018-06-28T07:34:27.649Z,9.40
2018-06-28T07:35:27.652Z,4.90
2018-06-28T07:36:27.658Z,5.70
2018-06-28T07:37:27.662Z,5.30
2018-06-28T07:38:27.674Z,6.40
2018-06-28T07:39:27.678Z,3.90
2018-06-28T07:40:27.675Z,5.00
2018-06-28T07:41:27.680Z,8.70
2018-06-28T07:42:27.740Z,8.00
2018-06-28T07:43:27.688Z,6.20
2018-06-28T07:44:27.693Z,8.80
2018-06-28T07:45:27.695Z,4.90
2018-06-28T07:46:27.701Z,4.10
2018-06-28T07:47:27.701Z,6.40
2018-06-28T07:48:27.703Z,4.50
2018-06-28T07:49:27.706Z,5.10
2018-06-28T07:50:27.707Z,4.30
2018-06-28T07:51:27.710Z,7.30
2018-06-28T07:52:27.742Z,4.10
2018-06-28T07:53:27.709Z,6.90
2018-06-28T07:54:27.711Z,4.60
2018-06-28T07:55:27.817Z,5.90
2018-06-28T07:56:27.709Z,5.30
2018-06-28T07:57:27.707Z,4.40
2018-06-28T07:58:27.709Z,4.90
2018-06-28T07:59:27.727Z,4.80
2018-06-28T08:00:27.705Z,4.60
2018-06-28T08:01:27.705Z,8.70
2018-06-28T08:02:27.702Z,4.20
2018-06-28T08:03:27.701Z,5.60
2018-06-28T08:04:27.698Z,5.20
2018-06-28T08:05:27.709Z,5.50
2018-06-28T08:06:27.694Z,6.50
2018-06-28T08:07:27.692Z,6.40
2018-06-28T08:08:27.690Z,4.30
2018-06-28T08:09:27.685Z,5.30
2018-06-28T08:10:27.684Z,5.90
2018-06-28T08:11:28.289Z,4.30
2018-06-28T08:12:27.680Z,6.50
2018-06-28T08:13:27.674Z,8.60
2018-06-28T08:14:27.672Z,7.90
2018-06-28T08:15:27.667Z,5.50
2018-06-28T08:16:27.664Z,7.90
2018-06-28T08:17:27.659Z,5.30
2018-06-28T08:18:27.657Z,5.80
2018-06-28T08:19:27.654Z,4.50
2018-06-28T08:20:27.650Z,5.80
2018-06-28T08:21:27.680Z,3.90
2018-06-28T08:22:27.644Z,4.60
2018-06-28T08:23:27.640Z,5.30
2018-06-28T08:24:27.637Z,5.70
2018-06-28T08:25:27.634Z,6.20
2018-06-28T08:26:27.636Z,7.80
2018-06-28T08:27:27.626Z,4.90
2018-06-28T08:28:27.629Z,6.90
2018-06-28T08:29:27.626Z,5.30
2018-06-28T08:30:27.623Z,5.10
2018-06-28T08:31:27.609Z,5.80
2018-06-28T08:32:27.614Z,4.90
2018-06-28T08:33:27.604Z,7.30
2018-06-28T08:34:27.597Z,6.10
2018-06-28T08:35:27.594Z,5.00
2018-06-28T08:36:27.595Z,5.90
2018-06-28T08:37:27.580Z,5.10
2018-06-28T08:38:27.577Z,7.10
2018-06-28T08:39:27.570Z,4.40
2018-06-28T08:40:27.566Z,4.30
2018-06-28T08:41:27.560Z,4.40
2018-06-28T08:42:27.554Z,4.90
2018-06-28T08:43:27.548Z,5.00
2018-06-28T08:44:27.543Z,3.70
2018-06-28T08:45:27.544Z,5.50
2018-06-28T08:46:27.532Z,5.70
2018-06-28T08:47:27.525Z,13.00
2018-06-28T08:48:27.519Z,29.80
2018-06-28T08:49:27.514Z,6.30
2018-06-28T08:50:27.516Z,6.10
2018-06-28T08:51:27.501Z,4.00
2018-06-28T08:52:27.496Z,3.70
2018-06-28T08:53:27.486Z,7.00
2018-06-28T08:54:27.490Z,12.30
2018-06-28T08:55:27.484Z,8.00
2018-06-28T08:56:27.473Z,5.10
2018-06-28T08:57:27.461Z,7.20
2018-06-28T08:58:27.455Z,6.70
2018-06-28T08:59:27.448Z,8.00
2018-06-28T09:00:27.439Z,5.40
2018-06-28T09:01:27.447Z,6.20
2018-06-28T09:02:27.433Z,5.10
2018-06-28T09:03:27.423Z,4.30
2018-06-28T09:04:27.413Z,4.30
2018-06-28T09:05:27.409Z,4.80
2018-06-28T09:06:27.407Z,7.60
2018-06-28T09:07:27.400Z,7.70
2018-06-28T09:08:27.390Z,5.50
2018-06-28T09:09:27.381Z,6.70
2018-06-28T09:10:27.385Z,6.30
2018-06-28T09:11:27.375Z,6.20
2018-06-28T09:12:27.367Z,6.80
2018-06-28T09:13:27.368Z,5.40
2018-06-28T09:14:27.355Z,4.50
2018-06-28T09:15:27.477Z,4.10
2018-06-28T09:16:27.349Z,4.10
2018-06-28T09:17:27.346Z,4.60
2018-06-28T09:18:27.351Z,5.30
2018-06-28T09:19:27.342Z,2.90
2018-06-28T09:20:27.351Z,4.70
2018-06-28T09:21:27.333Z,2.30
2018-06-28T09:22:27.332Z,3.10
2018-06-28T09:23:27.329Z,3.20
2018-06-28T09:24:27.328Z,3.30
2018-06-28T09:25:27.327Z,6.10
2018-06-28T09:26:27.326Z,3.10
2018-06-28T09:27:27.326Z,3.70
2018-06-28T09:28:27.327Z,3.70
2018-06-28T09:29:27.327Z,3.00
2018-06-28T09:30:27.325Z,5.10
2018-06-28T09:31:27.326Z,3.80
2018-06-28T09:32:27.326Z,6.30
2018-06-28T09:33:27.324Z,3.00
2018-06-28T09:34:27.326Z,6.10
2018-06-28T09:35:27.352Z,3.90
2018-06-28T09:36:27.325Z,5.80
2018-06-28T09:37:27.324Z,2.60
2018-06-28T09:38:27.340Z,3.40
2018-06-28T09:39:27.326Z,3.10
2018-06-28T09:40:27.329Z,4.40
2018-06-28T09:41:27.331Z,5.10
2018-06-28T09:42:27.337Z,3.70
2018-06-28T09:43:27.333Z,3.20
2018-06-28T09:44:27.330Z,7.30
2018-06-28T09:45:27.334Z,2.50
2018-06-28T09:46:27.339Z,3.20
2018-06-28T09:47:27.337Z,3.60
2018-06-28T09:48:27.340Z,3.90
2018-06-28T09:49:27.350Z,3.30
2018-06-28T09:50:27.340Z,3.90
2018-06-28T09:51:27.344Z,3.80
2018-06-28T09:52:27.358Z,3.00
2018-06-28T09:53:27.344Z,3.30
2018-06-28T09:54:27.345Z,4.10
2018-06-28T09:55:27.350Z,3.70
2018-06-28T09:56:27.365Z,2.70
2018-06-28T09:57:27.350Z,4.60
2018-06-28T09:58:27.350Z,3.00
2018-06-28T09:59:27.497Z,4.20
2018-06-28T10:00:27.402Z,2.50
2018-06-28T10:01:27.349Z,3.10
2018-06-28T10:02:27.349Z,2.60
2018-06-28T10:03:27.358Z,3.90
2018-06-28T10:04:27.352Z,8.90
2018-06-28T10:05:27.356Z,2.70
2018-06-28T10:06:27.353Z,4.30
2018-06-28T10:07:27.352Z,3.90
2018-06-28T10:08:27.350Z,3.40
2018-06-28T10:09:27.356Z,4.00
2018-06-28T10:10:27.350Z,5.90
2018-06-28T10:11:27.349Z,4.80
2018-06-28T10:12:27.349Z,3.00
2018-06-28T10:13:27.350Z,4.00
2018-06-28T10:14:27.351Z,5.90
2018-06-28T10:15:27.349Z,3.30
2018-06-28T10:16:27.350Z,3.00
2018-06-28T10:17:27.356Z,3.10
2018-06-28T10:18:27.353Z,5.10
2018-06-28T10:19:27.365Z,4.60
2018-06-28T10:20:27.356Z,3.60
2018-06-28T10:21:27.358Z,3.00
2018-06-28T10:22:27.361Z,4.20
2018-06-28T10:23:27.360Z,3.80
2018-06-28T10:24:27.365Z,5.00
2018-06-28T10:25:27.365Z,3.30
2018-06-28T10:26:27.369Z,4.90
2018-06-28T10:27:27.371Z,3.60
2018-06-28T10:28:27.377Z,3.50
2018-06-28T10:29:27.381Z,3.20
2018-06-28T10:30:27.385Z,2.70
2018-06-28T10:31:27.596Z,3.30
2018-06-28T10:32:27.400Z,3.80
2018-06-28T10:33:27.410Z,3.30
2018-06-28T10:34:27.410Z,3.80
2018-06-28T10:35:27.406Z,2.50
2018-06-28T10:36:27.420Z,2.80
2018-06-28T10:37:27.416Z,3.50
2018-06-28T10:38:27.425Z,5.50
2018-06-28T10:39:27.427Z,2.40
2018-06-28T10:40:27.430Z,3.40
2018-06-28T10:41:27.451Z,3.80
2018-06-28T10:42:27.452Z,2.40
2018-06-28T10:43:27.457Z,3.00
2018-06-28T10:44:27.456Z,3.00
2018-06-28T10:45:27.460Z,3.80
2018-06-28T10:46:27.462Z,2.40
2018-06-28T10:47:27.530Z,3.80
2018-06-28T10:48:27.469Z,2.40
2018-06-28T10:49:27.474Z,4.80
2018-06-28T10:50:27.516Z,3.70
2018-06-28T10:51:27.480Z,3.00
2018-06-28T10:52:27.478Z,3.00
2018-06-28T10:53:27.483Z,4.60
2018-06-28T10:54:27.485Z,2.40
2018-06-28T10:55:27.492Z,3.30
2018-06-28T10:56:27.516Z,3.40
2018-06-28T10:57:27.497Z,4.20
2018-06-28T10:58:27.503Z,4.30
2018-06-28T10:59:27.551Z,2.20
2018-06-28T11:00:27.513Z,2.40
2018-06-28T11:01:27.515Z,3.50
2018-06-28T11:02:27.532Z,2.10
2018-06-28T11:03:27.536Z,2.70
2018-06-28T11:04:27.534Z,3.20
2018-06-28T11:05:27.537Z,6.40
2018-06-28T11:06:27.542Z,3.50
2018-06-28T11:07:27.569Z,5.50
2018-06-28T11:08:27.627Z,3.30
2018-06-28T11:09:27.562Z,3.30
2018-06-28T11:10:27.566Z,3.50
2018-06-28T11:11:27.577Z,2.50
2018-06-28T11:12:27.574Z,3.30
2018-06-28T11:13:27.583Z,2.30
2018-06-28T11:14:27.586Z,2.50
2018-06-28T11:15:27.593Z,2.70
2018-06-28T11:16:27.597Z,2.60
2018-06-28T11:17:27.602Z,2.60
2018-06-28T11:18:27.637Z,2.10
2018-06-28T11:19:27.617Z,3.00
2018-06-28T11:20:27.624Z,4.20
2018-06-28T11:21:27.628Z,2.90
2018-06-28T11:22:27.637Z,2.30
2018-06-28T11:23:27.640Z,3.50
2018-06-28T11:24:27.646Z,2.50
2018-06-28T11:25:27.661Z,2.60
2018-06-28T11:26:27.664Z,4.70
2018-06-28T11:27:27.664Z,2.20
2018-06-28T11:28:27.679Z,3.30
2018-06-28T11:29:27.676Z,2.10
2018-06-28T11:30:27.688Z,2.30
2018-06-28T11:31:27.689Z,3.20
2018-06-28T11:32:27.693Z,4.00
2018-06-28T11:33:27.707Z,2.30
2018-06-28T11:34:27.713Z,2.40
2018-06-28T11:35:27.711Z,2.90
2018-06-28T11:36:27.722Z,2.10
2018-06-28T11:37:27.722Z,3.30
2018-06-28T11:38:27.729Z,1.90
2018-06-28T11:39:27.735Z,2.90
2018-06-28T11:40:27.739Z,5.00
2018-06-28T11:41:27.742Z,3.60
2018-06-28T11:42:27.748Z,2.50
2018-06-28T11:43:27.753Z,2.20
2018-06-28T11:44:27.809Z,2.60
2018-06-28T11:45:27.765Z,2.20
2018-06-28T11:46:27.767Z,6.00
2018-06-28T11:47:27.770Z,3.10
2018-06-28T11:48:27.776Z,2.90
2018-06-28T11:49:27.783Z,4.20
2018-06-28T11:50:27.781Z,3.60
2018-06-28T11:51:27.794Z,3.30
2018-06-28T11:52:27.790Z,4.10
2018-06-28T11:53:27.788Z,3.70
2018-06-28T11:54:27.800Z,2.20
2018-06-28T11:55:27.792Z,2.20
2018-06-28T11:56:27.798Z,3.00
2018-06-28T11:57:27.795Z,3.60
2018-06-28T11:58:27.791Z,3.10
2018-06-28T11:59:27.801Z,2.70
2018-06-28T12:00:27.792Z,5.70
2018-06-28T12:01:27.791Z,3.30
2018-06-28T12:02:27.789Z,6.90
2018-06-28T12:03:27.796Z,4.00
2018-06-28T12:04:27.784Z,3.40
2018-06-28T12:05:27.828Z,4.30
2018-06-28T12:06:27.780Z,3.20
2018-06-28T12:07:27.787Z,4.40
2018-06-28T12:08:27.775Z,3.00
2018-06-28T12:09:27.778Z,3.40
2018-06-28T12:10:27.769Z,5.60
2018-06-28T12:11:27.765Z,5.40
2018-06-28T12:12:27.762Z,4.70
2018-06-28T12:13:27.757Z,3.60
2018-06-28T12:14:27.755Z,4.90
2018-06-28T12:15:27.784Z,4.60
2018-06-28T12:16:27.747Z,2.90
2018-06-28T12:17:27.749Z,2.60
2018-06-28T12:18:27.737Z,4.00
2018-06-28T12:19:27.739Z,3.70
2018-06-28T12:20:27.727Z,3.50
2018-06-28T12:21:27.730Z,4.20
2018-06-28T12:22:27.756Z,3.00
2018-06-28T12:23:27.713Z,2.80
2018-06-28T12:24:27.708Z,2.50
2018-06-28T12:25:27.703Z,3.60
2018-06-28T12:26:27.697Z,6.00
2018-06-28T12:27:27.692Z,2.80
2018-06-28T12:28:27.899Z,3.70
2018-06-28T12:29:27.693Z,3.10
2018-06-28T12:30:27.693Z,2.80
2018-06-28T12:31:27.671Z,3.20
2018-06-28T12:32:27.665Z,2.70
2018-06-28T12:33:27.668Z,3.20
2018-06-28T12:34:27.657Z,2.50
2018-06-28T12:35:27.650Z,8.60
2018-06-28T12:36:27.641Z,3.40
2018-06-28T12:37:27.647Z,4.40
2018-06-28T12:38:27.643Z,3.80
2018-06-28T12:39:27.633Z,2.60
2018-06-28T12:40:27.627Z,4.10
2018-06-28T12:41:27.614Z,2.90
2018-06-28T12:42:27.607Z,2.60
2018-06-28T12:43:27.603Z,2.30
2018-06-28T12:44:27.787Z,3.30
2018-06-28T12:45:27.595Z,3.00
2018-06-28T12:46:27.598Z,3.00
2018-06-28T12:47:27.587Z,2.70
2018-06-28T12:48:27.577Z,2.60
2018-06-28T12:49:27.565Z,4.20
2018-06-28T12:50:27.568Z,7.10
2018-06-28T12:51:27.552Z,3.70
2018-06-28T12:52:27.547Z,5.40
2018-06-28T12:53:27.542Z,2.70
2018-06-28T12:54:27.538Z,4.00
2018-06-28T12:55:27.528Z,3.70
2018-06-28T12:56:27.526Z,5.40
2018-06-28T12:57:27.515Z,3.30
2018-06-28T12:58:27.508Z,5.80
2018-06-28T12:59:27.510Z,2.70
2018-06-28T13:00:27.494Z,2.50
2018-06-28T13:01:27.496Z,5.40
2018-06-28T13:02:27.480Z,2.30
2018-06-28T13:03:27.473Z,4.00
2018-06-28T13:04:27.466Z,2.60
2018-06-28T13:05:27.461Z,2.90
2018-06-28T13:06:27.450Z,3.50
2018-06-28T13:07:27.455Z,5.90